Time;durP1;ratioP1;P1;durP2;ratioP2;P2;SDS_P1;SDS_P2;PMS_P1;PMS_P2;Temp;Humidity;BMP_temperature;BMP_pressure;BME280_temperature;BME280_humidity;BME280_pressure;Samples;Min_cycle;Max_cycle;Signal;HPM_P1;HPM_P2
2024/01/17 00:01:15;;;;;;;11.52;7.25;;;;;;;-146.25;100.00;52721.00;2016123;29;20870;-65
2024/01/17 00:02:16;;;;;;;11.45;7.15;;;;;;;-146.25;100.00;52733.19;2015436;29;32995;-65
2024/01/17 00:03:18;;;;;;;16.98;7.45;;;;;;;-146.25;100.00;52745.34;2014939;29;32669;-63
2024/01/17 00:04:22;;;;;;;13.32;7.85;;;;;;;-146.25;100.00;52753.47;2014820;29;33551;-64
2024/01/17 00:05:24;;;;;;;11.18;6.85;;;;;;;-146.25;100.00;52696.69;2015236;29;35261;-63
2024/01/17 00:06:26;;;;;;;14.43;7.18;;;;;;;-146.25;100.00;52729.13;2016304;29;20934;-62
2024/01/17 00:07:28;;;;;;;15.93;7.65;;;;;;;-146.25;100.00;52761.56;2015894;29;27792;-63
2024/01/17 00:08:30;;;;;;;13.48;7.05;;;;;;;-146.25;100.00;52771.72;2015778;29;34064;-65
2024/01/17 00:09:31;;;;;;;13.25;6.90;;;;;;;-146.25;100.00;52745.34;2015545;29;35163;-65
2024/01/17 00:10:33;;;;;;;9.77;6.43;;;;;;;-146.25;100.00;52729.13;2015925;29;36234;-63
2024/01/17 00:11:36;;;;;;;14.10;7.15;;;;;;;-146.25;100.00;52721.00;2015768;29;20052;-62
2024/01/17 00:12:37;;;;;;;10.10;7.00;;;;;;;-146.25;100.00;52757.50;2015705;29;38352;-65
2024/01/17 00:13:39;;;;;;;15.90;7.22;;;;;;;-146.25;100.00;52751.44;2015956;29;32752;-64
2024/01/17 00:14:42;;;;;;;13.13;6.82;;;;;;;-146.25;100.00;52725.06;2016530;29;20116;-64
2024/01/17 00:15:44;;;;;;;13.43;7.47;;;;;;;-146.25;100.00;52727.09;2007093;29;31784;-64
2024/01/17 00:16:46;;;;;;;14.43;7.05;;;;;;;-146.25;100.00;52712.91;2008069;29;20898;-65
2024/01/17 00:17:47;;;;;;;12.23;7.13;;;;;;;-146.25;100.00;52706.81;2015485;29;34285;-64
2024/01/17 00:18:54;;;;;;;14.23;7.30;;;;;;;-146.25;100.00;52761.56;2016325;29;20037;-64
2024/01/17 00:19:56;;;;;;;12.82;6.63;;;;;;;-146.25;100.00;52747.38;2015572;29;37543;-65
2024/01/17 00:20:58;;;;;;;17.20;6.78;;;;;;;-146.25;100.00;52702.75;2016596;29;20048;-64
2024/01/17 00:22:00;;;;;;;15.52;6.68;;;;;;;-146.25;100.00;52745.34;2015487;29;36825;-64
2024/01/17 00:23:01;;;;;;;13.13;7.05;;;;;;;-146.25;100.00;52733.19;2015879;29;35543;-64
2024/01/17 00:24:06;;;;;;;13.77;6.70;;;;;;;-146.25;100.00;52759.53;2015541;29;20149;-65
2024/01/17 00:25:10;;;;;;;14.48;6.82;;;;;;;-146.25;100.00;52747.38;2015549;29;37954;-64
2024/01/17 00:26:12;;;;;;;13.10;6.45;;;;;;;-146.25;100.00;52739.25;2015577;29;33116;-64
2024/01/17 00:27:14;;;;;;;14.05;6.97;;;;;;;-146.25;100.00;52747.38;2015783;29;32521;-64
2024/01/17 00:28:16;;;;;;;12.90;6.32;;;;;;;-146.25;100.00;52733.19;2014970;29;34875;-64
2024/01/17 00:29:21;;;;;;;17.33;6.97;;;;;;;-146.25;100.00;52704.78;2015890;29;33056;-64
2024/01/17 00:30:23;;;;;;;12.15;6.45;;;;;;;-146.25;100.00;52712.91;2015466;29;33643;-65
2024/01/17 00:31:25;;;;;;;16.55;7.05;;;;;;;-146.25;100.00;52733.19;2015754;29;33518;-64
2024/01/17 00:32:27;;;;;;;17.38;7.00;;;;;;;-146.25;100.00;52745.34;2015912;29;25871;-63
2024/01/17 00:33:29;;;;;;;13.68;6.55;;;;;;;-146.25;100.00;52745.34;2015825;29;30377;-64
2024/01/17 00:34:31;;;;;;;10.32;6.32;;;;;;;-146.25;100.00;52729.13;2015102;29;28056;-63
2024/01/17 00:35:32;;;;;;;12.95;6.25;;;;;;;-146.25;100.00;52739.25;2016623;29;20053;-63
2024/01/17 00:36:34;;;;;;;17.02;6.80;;;;;;;-146.25;100.00;52779.81;2015438;29;31223;-64
2024/01/17 00:37:38;;;;;;;12.48;7.15;;;;;;;-146.25;100.00;52741.28;2015824;29;36743;-64
2024/01/17 00:38:40;;;;;;;13.40;6.68;;;;;;;-146.25;100.00;52739.25;2015537;29;31645;-64
2024/01/17 00:39:42;;;;;;;13.65;6.78;;;;;;;-146.25;100.00;52743.31;2017794;29;20046;-64
2024/01/17 00:40:44;;;;;;;12.32;6.10;;;;;;;-146.25;100.00;52727.09;2016391;29;36495;-64
2024/01/17 00:41:49;;;;;;;10.75;6.43;;;;;;;-146.25;100.00;52769.69;2017006;29;33585;-64
2024/01/17 00:42:51;;;;;;;18.48;6.78;;;;;;;-146.25;100.00;52802.13;2016556;29;33977;-65
2024/01/17 00:43:53;;;;;;;13.25;7.20;;;;;;;-146.25;100.00;52710.88;2017640;29;20046;-63
2024/01/17 00:44:55;;;;;;;15.60;7.03;;;;;;;-146.25;100.00;52743.31;2016697;29;37110;-65
2024/01/17 00:45:56;;;;;;;14.90;6.32;;;;;;;-146.25;100.00;52733.19;2008789;29;34910;-64
2024/01/17 00:47:00;;;;;;;12.68;6.32;;;;;;;-146.25;100.00;52718.97;2009113;29;20089;-65
2024/01/17 00:48:03;;;;;;;12.88;6.40;;;;;;;-146.25;100.00;52769.69;2008600;29;36175;-64
2024/01/17 00:49:06;;;;;;;10.88;6.93;;;;;;;-146.25;100.00;52767.66;2008724;29;20164;-64
2024/01/17 00:50:09;;;;;;;14.07;6.80;;;;;;;-146.25;100.00;52747.38;2016867;29;37369;-65
2024/01/17 00:51:21;;;;;;;13.85;6.05;;;;;;;-146.25;100.00;52749.41;2016660;29;31597;-64
2024/01/17 00:52:24;;;;;;;15.40;7.10;;;;;;;-146.25;100.00;52794.00;2017258;29;20033;-64
2024/01/17 00:53:26;;;;;;;14.60;6.47;;;;;;;-146.25;100.00;52751.44;2015878;29;36848;-64
2024/01/17 00:54:28;;;;;;;11.68;6.28;;;;;;;-146.25;100.00;52733.19;2017015;29;34539;-65
2024/01/17 00:55:30;;;;;;;15.13;6.88;;;;;;;-146.25;100.00;52690.59;2016418;29;31743;-64
2024/01/17 00:56:35;;;;;;;14.52;7.15;;;;;;;-146.25;100.00;52723.03;2016975;29;36433;-64
2024/01/17 00:57:39;;;;;;;14.27;7.53;;;;;;;-146.25;100.00;52739.25;2017613;29;20049;-64
2024/01/17 00:58:41;;;;;;;15.80;7.25;;;;;;;-146.25;100.00;52721.00;2017966;29;20266;-64
2024/01/17 00:59:44;;;;;;;11.80;6.50;;;;;;;-146.25;100.00;52779.81;2017226;29;20792;-64
2024/01/17 01:00:46;;;;;;;15.88;7.10;;;;;;;-146.25;100.00;52729.13;2016735;29;38221;-64
2024/01/17 01:01:48;;;;;;;15.45;6.63;;;;;;;-146.25;100.00;52773.72;2017207;29;20088;-64
2024/01/17 01:02:53;;;;;;;13.55;6.93;;;;;;;-146.25;100.00;52723.03;2017028;29;37308;-64
2024/01/17 01:03:55;;;;;;;11.70;6.43;;;;;;;-146.25;100.00;52791.97;2017151;29;22212;-64
2024/01/17 01:04:57;;;;;;;13.38;7.18;;;;;;;-146.25;100.00;52765.63;2016659;29;36331;-64
2024/01/17 01:05:59;;;;;;;12.43;6.53;;;;;;;-146.25;100.00;52759.53;2016680;29;36478;-64
2024/01/17 01:07:01;;;;;;;13.85;6.95;;;;;;;-146.25;100.00;52735.22;2017374;29;20431;-64
2024/01/17 01:08:03;;;;;;;11.77;6.47;;;;;;;-146.25;100.00;52755.47;2016479;29;37523;-64
2024/01/17 01:09:05;;;;;;;13.85;7.30;;;;;;;-146.25;100.00;52737.22;2017387;29;20045;-64
2024/01/17 01:10:07;;;;;;;11.77;6.80;;;;;;;-146.25;100.00;52718.97;2016622;29;32848;-64
2024/01/17 01:11:09;;;;;;;14.45;7.40;;;;;;;-146.25;100.00;52765.63;2016726;29;34756;-64
2024/01/17 01:12:11;;;;;;;14.80;7.35;;;;;;;-146.25;100.00;52755.47;2017000;29;20905;-64
2024/01/17 01:13:13;;;;;;;15.70;7.03;;;;;;;-146.25;100.00;52751.44;2016182;29;37343;-63
2024/01/17 01:14:15;;;;;;;13.60;7.15;;;;;;;-146.25;100.00;52729.13;2015990;29;34298;-64
2024/01/17 01:15:19;;;;;;;16.77;7.05;;;;;;;-146.25;100.00;52755.47;2018020;29;20038;-64
2024/01/17 01:16:21;;;;;;;14.13;7.20;;;;;;;-146.25;100.00;52712.91;2016030;29;37371;-64
2024/01/17 01:17:22;;;;;;;12.50;7.07;;;;;;;-146.25;100.00;52749.41;2017639;29;20058;-64
2024/01/17 01:18:24;;;;;;;11.02;6.88;;;;;;;-146.25;100.00;52690.59;2016348;29;35865;-64
2024/01/17 01:19:26;;;;;;;12.48;7.72;;;;;;;-146.25;100.00;52771.72;2017342;29;20059;-65
2024/01/17 01:20:28;;;;;;;11.57;6.63;;;;;;;-146.25;100.00;52741.28;2017573;29;20820;-63
2024/01/17 01:21:30;;;;;;;12.65;6.93;;;;;;;-146.25;100.00;52723.03;2016667;29;36182;-64
2024/01/17 01:22:32;;;;;;;13.65;7.95;;;;;;;-146.25;100.00;52729.13;2016623;29;36104;-63
2024/01/17 01:23:34;;;;;;;12.30;6.43;;;;;;;-146.25;100.00;52708.84;2016718;29;33148;-64
2024/01/17 01:24:35;;;;;;;12.95;6.93;;;;;;;-146.25;100.00;52731.16;2016008;29;36504;-63
2024/01/17 01:25:40;;;;;;;14.23;7.40;;;;;;;-146.25;100.00;52725.06;2016957;29;31600;-64
2024/01/17 01:26:42;;;;;;;14.88;7.10;;;;;;;-146.25;100.00;52751.44;2017256;29;20172;-64
2024/01/17 01:27:45;;;;;;;12.82;7.32;;;;;;;-146.25;100.00;52725.06;2016623;29;37474;-64
2024/01/17 01:28:47;;;;;;;19.10;7.07;;;;;;;-146.25;100.00;52745.34;2016470;29;35376;-64
2024/01/17 01:29:49;;;;;;;14.73;7.30;;;;;;;-146.25;100.00;52723.03;2016922;29;35929;-63
2024/01/17 01:30:53;;;;;;;14.77;6.97;;;;;;;-146.25;100.00;52743.31;2015965;29;35790;-64
2024/01/17 01:31:55;;;;;;;16.55;7.70;;;;;;;-146.25;100.00;52747.38;2016487;29;20042;-64
2024/01/17 01:32:57;;;;;;;12.85;7.05;;;;;;;-146.25;100.00;52712.91;2015722;29;36409;-64
2024/01/17 01:33:59;;;;;;;13.68;7.13;;;;;;;-146.25;100.00;52745.34;2016138;29;34810;-64
2024/01/17 01:35:01;;;;;;;15.75;7.30;;;;;;;-146.25;100.00;52743.31;2015140;29;33239;-64
2024/01/17 01:36:06;;;;;;;16.83;7.82;;;;;;;-146.25;100.00;52753.47;2016188;29;34056;-63
2024/01/17 01:37:08;;;;;;;13.40;7.22;;;;;;;-146.25;100.00;52702.75;2016465;29;20042;-62
2024/01/17 01:38:10;;;;;;;14.27;7.63;;;;;;;-146.25;100.00;52759.53;2017051;29;20042;-63
2024/01/17 01:39:14;;;;;;;12.98;7.57;;;;;;;-146.25;100.00;52712.91;2016501;29;33422;-63
2024/01/17 01:40:16;;;;;;;14.15;7.50;;;;;;;-146.25;100.00;52741.28;2017093;29;20034;-63
2024/01/17 01:41:18;;;;;;;13.43;7.53;;;;;;;-146.25;100.00;52731.16;2015880;29;29527;-63
2024/01/17 01:42:22;;;;;;;18.92;7.28;;;;;;;-146.25;100.00;52698.72;2016440;29;31534;-63
2024/01/17 01:43:25;;;;;;;15.05;8.38;;;;;;;-146.25;100.00;52710.88;2016356;29;36985;-63
2024/01/17 01:44:29;;;;;;;12.68;7.53;;;;;;;-146.25;100.00;52733.19;2017552;29;20090;-63
2024/01/17 01:45:31;;;;;;;13.52;7.25;;;;;;;-146.25;100.00;52737.22;2015868;29;36338;-63
2024/01/17 01:46:33;;;;;;;17.73;7.65;;;;;;;-146.25;100.00;52741.28;2016912;29;33237;-63
2024/01/17 01:47:36;;;;;;;17.20;7.38;;;;;;;-146.25;100.00;52723.03;2015690;29;34850;-64
2024/01/17 01:48:41;;;;;;;12.18;7.75;;;;;;;-146.25;100.00;52733.19;2016025;29;35159;-63
2024/01/17 01:49:43;;;;;;;15.25;7.65;;;;;;;-146.25;100.00;52763.59;2015242;29;33361;-63
2024/01/17 01:50:45;;;;;;;15.73;7.70;;;;;;;-146.25;100.00;52739.25;2016130;29;36691;-63
2024/01/17 01:51:48;;;;;;;17.70;8.35;;;;;;;-146.25;100.00;52712.91;2016515;29;33953;-63
2024/01/17 01:52:51;;;;;;;14.27;7.40;;;;;;;-146.25;100.00;52741.28;2017182;29;20853;-63
2024/01/17 01:54:00;;;;;;;15.80;8.10;;;;;;;-146.25;100.00;52737.22;2016427;29;31068;-64
2024/01/17 01:55:04;;;;;;;17.00;8.82;;;;;;;-146.25;100.00;52704.78;2017538;29;20037;-63
2024/01/17 01:56:06;;;;;;;14.20;8.07;;;;;;;-146.25;100.00;52716.97;2015945;29;37135;-63
2024/01/17 01:57:08;;;;;;;15.55;8.75;;;;;;;-146.25;100.00;52751.44;2016563;29;31175;-64
2024/01/17 01:58:10;;;;;;;16.63;9.20;;;;;;;-146.25;100.00;52725.06;2016443;29;34470;-63
2024/01/17 01:59:14;;;;;;;14.93;8.95;;;;;;;-146.25;100.00;52735.22;2015888;29;37630;-64
2024/01/17 02:00:17;;;;;;;17.38;8.68;;;;;;;-146.25;100.00;52751.44;2008433;29;20217;-63
2024/01/17 02:01:24;;;;;;;14.68;8.75;;;;;;;-146.25;100.00;52755.47;2008992;29;31676;-63
2024/01/17 02:02:28;;;;;;;13.52;8.88;;;;;;;-146.25;100.00;52708.84;2015712;29;34737;-63
2024/01/17 02:03:30;;;;;;;15.95;9.48;;;;;;;-146.25;100.00;52704.78;2016644;29;20033;-63
2024/01/17 02:04:34;;;;;;;17.27;8.48;;;;;;;-146.25;100.00;52710.88;2015914;29;35746;-63
2024/01/17 02:05:36;;;;;;;14.65;9.07;;;;;;;-146.25;100.00;52723.03;2016110;29;29636;-64
2024/01/17 02:06:39;;;;;;;15.30;9.18;;;;;;;-146.25;100.00;52723.03;2016215;29;20114;-63
2024/01/17 02:07:41;;;;;;;15.40;9.23;;;;;;;-146.25;100.00;52745.34;2016406;29;36316;-63
2024/01/17 02:08:43;;;;;;;15.43;9.40;;;;;;;-146.25;100.00;52765.63;2016323;29;34199;-64
2024/01/17 02:09:45;;;;;;;17.02;9.40;;;;;;;-146.25;100.00;52721.00;2016323;29;20052;-63
2024/01/17 02:10:47;;;;;;;14.80;9.05;;;;;;;-146.25;100.00;52733.19;2015702;29;37136;-63
2024/01/17 02:11:49;;;;;;;16.55;9.45;;;;;;;-146.25;100.00;52725.06;2016284;29;39280;-63
2024/01/17 02:12:53;;;;;;;18.55;9.57;;;;;;;-146.25;100.00;52737.22;2016538;29;20056;-64
2024/01/17 02:13:56;;;;;;;18.48;9.90;;;;;;;-146.25;100.00;52781.84;2015740;29;37288;-64
2024/01/17 02:14:57;;;;;;;14.90;9.20;;;;;;;-146.25;100.00;52747.38;2015487;29;37290;-63
2024/01/17 02:16:00;;;;;;;16.30;9.68;;;;;;;-146.25;100.00;52751.44;2017372;29;20077;-63
2024/01/17 02:17:03;;;;;;;15.68;10.32;;;;;;;-146.25;100.00;52745.34;2016400;29;26819;-63
2024/01/17 02:18:05;;;;;;;17.88;9.70;;;;;;;-146.25;100.00;52729.13;2016422;29;35716;-63
2024/01/17 02:19:07;;;;;;;16.77;9.73;;;;;;;-146.25;100.00;52731.16;2016959;29;20125;-64
2024/01/17 02:20:09;;;;;;;16.90;10.07;;;;;;;-146.25;100.00;52757.50;2007872;29;36875;-63
2024/01/17 02:21:12;;;;;;;16.77;9.52;;;;;;;-146.25;100.00;52753.47;2007829;29;36670;-63
2024/01/17 02:22:13;;;;;;;16.00;9.95;;;;;;;-146.25;100.00;52712.91;2016397;29;33030;-64
2024/01/17 02:23:25;;;;;;;17.65;9.82;;;;;;;-146.25;100.00;52714.94;2015544;29;38084;-63
2024/01/17 02:24:28;;;;;;;18.40;9.95;;;;;;;-146.25;100.00;52729.13;2008082;29;35755;-63
2024/01/17 02:25:30;;;;;;;17.95;10.68;;;;;;;-146.25;100.00;52718.97;2007883;29;35165;-63
2024/01/17 02:26:34;;;;;;;18.65;10.50;;;;;;;-146.25;100.00;52721.00;2016424;29;36543;-64
2024/01/17 02:27:39;;;;;;;17.20;10.93;;;;;;;-146.25;100.00;52729.13;2016930;29;20045;-65
2024/01/17 02:28:40;;;;;;;18.95;9.95;;;;;;;-146.25;100.00;52745.34;2015720;29;33168;-63
2024/01/17 02:29:45;;;;;;;20.75;11.20;;;;;;;-146.25;100.00;52712.91;2016522;29;32525;-63
2024/01/17 02:30:47;;;;;;;16.52;10.55;;;;;;;-146.25;100.00;52755.47;2016467;29;20105;-63
2024/01/17 02:31:52;;;;;;;19.30;9.55;;;;;;;-146.25;100.00;52737.22;2007827;29;37408;-63
2024/01/17 02:32:54;;;;;;;19.10;10.57;;;;;;;-146.25;100.00;52729.13;2008688;29;34488;-63
2024/01/17 02:33:56;;;;;;;19.10;10.63;;;;;;;-146.25;100.00;52771.72;2016339;29;20037;-63
2024/01/17 02:35:00;;;;;;;19.75;11.18;;;;;;;-146.25;100.00;52692.63;2017353;29;20057;-63
2024/01/17 02:36:03;;;;;;;17.15;10.85;;;;;;;-146.25;100.00;52759.53;2007759;29;35940;-63
2024/01/17 02:37:09;;;;;;;19.23;11.02;;;;;;;-146.25;100.00;52733.19;2007887;29;35157;-63
2024/01/17 02:38:11;;;;;;;18.02;10.18;;;;;;;-146.25;100.00;52696.69;2016262;29;20054;-63
2024/01/17 02:39:15;;;;;;;20.75;10.55;;;;;;;-146.25;100.00;52718.97;2016361;29;30739;-63
2024/01/17 02:40:16;;;;;;;17.17;10.30;;;;;;;-146.25;100.00;52735.22;2015972;29;34284;-63
2024/01/17 02:41:18;;;;;;;19.73;10.95;;;;;;;-146.25;100.00;52721.00;2016970;29;20765;-63
2024/01/17 02:42:20;;;;;;;16.48;10.38;;;;;;;-146.25;100.00;52729.13;2015843;29;37085;-64
2024/01/17 02:43:22;;;;;;;17.50;10.27;;;;;;;-146.25;100.00;52725.06;2016230;29;33785;-63
2024/01/17 02:44:23;;;;;;;17.17;9.48;;;;;;;-146.25;100.00;52739.25;2016305;29;33666;-63
2024/01/17 02:45:27;;;;;;;20.33;10.38;;;;;;;-146.25;100.00;52721.00;2016139;29;32092;-63
2024/01/17 02:46:29;;;;;;;20.10;10.65;;;;;;;-146.25;100.00;52706.81;2016224;29;31059;-63
2024/01/17 02:47:33;;;;;;;18.20;10.77;;;;;;;-146.25;100.00;52751.44;2016933;29;20042;-63
2024/01/17 02:48:35;;;;;;;21.27;11.07;;;;;;;-146.25;100.00;52702.75;2016026;29;35659;-63
2024/01/17 02:49:38;;;;;;;20.20;10.43;;;;;;;-146.25;100.00;52716.97;2016099;29;36920;-63
2024/01/17 02:50:40;;;;;;;20.52;10.02;;;;;;;-146.25;100.00;52712.91;2015634;29;34202;-63
2024/01/17 02:51:45;;;;;;;21.90;11.07;;;;;;;-146.25;100.00;52749.41;2016413;29;35160;-63
2024/01/17 02:52:47;;;;;;;22.48;11.23;;;;;;;-146.25;100.00;52731.16;2007275;29;30992;-63
2024/01/17 02:53:51;;;;;;;19.95;10.93;;;;;;;-146.25;100.00;52716.97;2008531;29;20861;-62
2024/01/17 02:54:53;;;;;;;22.30;11.48;;;;;;;-146.25;100.00;52716.97;2015914;29;20087;-63
2024/01/17 02:55:55;;;;;;;19.20;10.15;;;;;;;-146.25;100.00;52775.75;2015825;29;39861;-63
2024/01/17 02:56:57;;;;;;;16.80;11.60;;;;;;;-146.25;100.00;52714.94;2016014;29;33066;-63
2024/01/17 02:58:01;;;;;;;18.15;10.80;;;;;;;-146.25;100.00;52721.00;2016095;29;37216;-63
2024/01/17 02:59:03;;;;;;;16.45;10.23;;;;;;;-146.25;100.00;52716.97;2007743;29;35747;-63
2024/01/17 03:00:06;;;;;;;19.88;10.80;;;;;;;-146.25;100.00;52725.06;2008189;29;20141;-63
2024/01/17 03:01:12;;;;;;;18.88;10.30;;;;;;;-146.25;100.00;52757.50;2015672;29;32816;-63
2024/01/17 03:02:14;;;;;;;20.02;11.00;;;;;;;-146.25;100.00;52753.47;2016399;29;24343;-63
2024/01/17 03:03:16;;;;;;;20.52;10.95;;;;;;;-146.25;100.00;52749.41;2015612;29;30988;-63
2024/01/17 03:04:18;;;;;;;19.20;10.13;;;;;;;-146.25;100.00;52727.09;2016255;29;36768;-63
2024/01/17 03:05:20;;;;;;;21.38;11.90;;;;;;;-146.25;100.00;52733.19;2015662;29;38104;-63
2024/01/17 03:06:24;;;;;;;18.60;10.55;;;;;;;-146.25;100.00;52761.56;2015474;29;34850;-63
2024/01/17 03:07:26;;;;;;;17.92;10.68;;;;;;;-146.25;100.00;52763.59;2015046;29;36690;-63
2024/01/17 03:08:28;;;;;;;19.58;10.77;;;;;;;-146.25;100.00;52721.00;2015587;29;28073;-63
2024/01/17 03:09:30;;;;;;;19.15;10.55;;;;;;;-146.25;100.00;52729.13;2015437;29;29402;-63
2024/01/17 03:10:32;;;;;;;21.00;10.50;;;;;;;-146.25;100.00;52765.63;2016703;29;20097;-64
2024/01/17 03:11:34;;;;;;;19.20;11.02;;;;;;;-146.25;100.00;52751.44;2015745;29;33353;-63
2024/01/17 03:12:36;;;;;;;19.38;10.75;;;;;;;-146.25;100.00;52745.34;2016620;29;31572;-63
2024/01/17 03:13:38;;;;;;;18.02;10.23;;;;;;;-146.25;100.00;52723.03;2016091;29;33779;-63
2024/01/17 03:14:39;;;;;;;15.35;9.55;;;;;;;-146.25;100.00;52761.56;2015383;29;37021;-63
2024/01/17 03:15:41;;;;;;;20.38;10.70;;;;;;;-146.25;100.00;52749.41;2015106;29;31809;-63
2024/01/17 03:16:43;;;;;;;18.80;10.55;;;;;;;-146.25;100.00;52714.94;2016151;29;38835;-63
2024/01/17 03:17:45;;;;;;;16.70;10.27;;;;;;;-146.25;100.00;52696.69;2015950;29;34397;-63
2024/01/17 03:18:47;;;;;;;16.60;10.48;;;;;;;-146.25;100.00;52737.22;2016062;29;34102;-63
2024/01/17 03:19:49;;;;;;;20.58;10.50;;;;;;;-146.25;100.00;52745.34;2016136;29;20041;-63
2024/01/17 03:20:50;;;;;;;28.55;11.15;;;;;;;-146.25;100.00;52763.59;2015855;29;37944;-63
2024/01/17 03:21:52;;;;;;;18.90;10.32;;;;;;;-146.25;100.00;52753.47;2016052;29;32925;-63
2024/01/17 03:22:54;;;;;;;19.23;10.23;;;;;;;-146.25;100.00;52745.34;2007672;29;38981;-63
2024/01/17 03:23:58;;;;;;;14.98;10.50;;;;;;;-146.25;100.00;52712.91;2001537;29;37345;-63
2024/01/17 03:25:00;;;;;;;17.05;10.68;;;;;;;-146.25;100.00;52696.69;2015737;29;36702;-63
2024/01/17 03:26:02;;;;;;;15.18;9.25;;;;;;;-146.25;100.00;52741.28;2016234;29;20042;-63
2024/01/17 03:27:04;;;;;;;16.30;11.13;;;;;;;-146.25;100.00;52731.16;2016004;29;30953;-63
2024/01/17 03:28:06;;;;;;;18.27;10.02;;;;;;;-146.25;100.00;52725.06;2016299;29;21020;-63
2024/01/17 03:29:07;;;;;;;18.80;10.52;;;;;;;-146.25;100.00;52747.38;2015892;29;35668;-63
2024/01/17 03:30:10;;;;;;;14.70;9.93;;;;;;;-146.25;100.00;52694.66;2015555;29;35432;-63
2024/01/17 03:31:12;;;;;;;18.45;10.60;;;;;;;-146.25;100.00;52718.97;2016227;29;32091;-63
2024/01/17 03:32:14;;;;;;;18.90;9.68;;;;;;;-146.25;100.00;52749.41;2015668;29;37784;-63
2024/01/17 03:33:15;;;;;;;16.92;9.70;;;;;;;-146.25;100.00;52706.81;2015954;29;35252;-63
2024/01/17 03:34:17;;;;;;;15.57;10.05;;;;;;;-146.25;100.00;52735.22;2016217;29;37307;-63
2024/01/17 03:35:21;;;;;;;14.18;9.38;;;;;;;-146.25;100.00;52725.06;2016182;29;20076;-64
2024/01/17 03:36:23;;;;;;;16.02;10.15;;;;;;;-146.25;100.00;52743.31;2015784;29;37367;-63
2024/01/17 03:37:24;;;;;;;16.55;10.35;;;;;;;-146.25;100.00;52731.16;2016231;29;33497;-63
2024/01/17 03:38:26;;;;;;;16.33;10.05;;;;;;;-146.25;100.00;52743.31;2016272;29;20033;-62
2024/01/17 03:39:28;;;;;;;16.17;9.55;;;;;;;-146.25;100.00;52741.28;2016000;29;35267;-63
2024/01/17 03:40:30;;;;;;;18.55;9.65;;;;;;;-146.25;100.00;52741.28;2016205;29;20162;-63
2024/01/17 03:41:32;;;;;;;17.65;9.73;;;;;;;-146.25;100.00;52721.00;2015784;29;38430;-63
2024/01/17 03:42:37;;;;;;;17.10;9.88;;;;;;;-146.25;100.00;52727.09;2016434;29;20041;-64
2024/01/17 03:43:38;;;;;;;15.02;9.55;;;;;;;-146.25;100.00;52731.16;2016738;29;20042;-63
2024/01/17 03:44:44;;;;;;;20.00;9.40;;;;;;;-146.25;100.00;52733.19;2015774;29;33505;-63
2024/01/17 03:45:46;;;;;;;18.30;9.55;;;;;;;-146.25;100.00;52761.56;2015906;29;34449;-63
2024/01/17 03:46:47;;;;;;;17.05;9.90;;;;;;;-146.25;100.00;52737.22;2016330;29;20050;-63
2024/01/17 03:47:49;;;;;;;19.17;9.15;;;;;;;-146.25;100.00;52729.13;2016665;29;20026;-63
2024/01/17 03:48:51;;;;;;;19.83;10.18;;;;;;;-146.25;100.00;52723.03;2016079;29;20804;-64
2024/01/17 03:49:53;;;;;;;15.10;9.63;;;;;;;-146.25;100.00;52739.25;2015799;29;32119;-63
2024/01/17 03:50:57;;;;;;;16.58;9.50;;;;;;;-146.25;100.00;52745.34;2015668;29;32872;-63
2024/01/17 03:51:59;;;;;;;13.25;9.45;;;;;;;-146.25;100.00;52749.41;2015941;29;37147;-63
2024/01/17 03:53:01;;;;;;;18.73;9.55;;;;;;;-146.25;100.00;52690.59;2015503;29;36161;-63
2024/01/17 03:54:06;;;;;;;12.65;9.05;;;;;;;-146.25;100.00;52733.19;2016625;29;20781;-63
2024/01/17 03:55:08;;;;;;;15.48;9.45;;;;;;;-146.25;100.00;52700.72;2015973;29;34822;-63
2024/01/17 03:56:10;;;;;;;17.42;10.07;;;;;;;-146.25;100.00;52753.47;2016304;29;35251;-63
2024/01/17 03:57:14;;;;;;;13.70;9.07;;;;;;;-146.25;100.00;52714.94;2015420;29;37197;-63
2024/01/17 03:58:16;;;;;;;17.20;9.52;;;;;;;-146.25;100.00;52731.16;2015507;29;35061;-63
2024/01/17 03:59:18;;;;;;;14.45;9.35;;;;;;;-146.25;100.00;52755.47;2015671;29;35257;-63
2024/01/17 04:00:19;;;;;;;14.93;9.05;;;;;;;-146.25;100.00;52753.47;2016550;29;20045;-63
2024/01/17 04:01:21;;;;;;;16.20;9.02;;;;;;;-146.25;100.00;52716.97;2015921;29;30678;-63
2024/01/17 04:02:23;;;;;;;16.52;9.57;;;;;;;-146.25;100.00;52696.69;2016117;29;35468;-63
2024/01/17 04:03:25;;;;;;;18.90;9.35;;;;;;;-146.25;100.00;52767.66;2015533;29;34488;-64
2024/01/17 04:04:26;;;;;;;13.73;8.77;;;;;;;-146.25;100.00;52723.03;2015853;29;34157;-63
2024/01/17 04:05:28;;;;;;;14.05;8.82;;;;;;;-146.25;100.00;52741.28;2015473;29;20050;-63
2024/01/17 04:06:32;;;;;;;15.57;9.57;;;;;;;-146.25;100.00;52706.81;2015811;29;34049;-63
2024/01/17 04:07:36;;;;;;;15.32;9.43;;;;;;;-146.25;100.00;52729.13;2016051;29;21478;-63
2024/01/17 04:08:38;;;;;;;15.07;9.05;;;;;;;-146.25;100.00;52751.44;2016077;29;32313;-63
2024/01/17 04:09:41;;;;;;;17.67;8.82;;;;;;;-146.25;100.00;52743.31;2015238;29;35110;-63
2024/01/17 04:10:43;;;;;;;15.15;8.75;;;;;;;-146.25;100.00;52731.16;2016092;29;32888;-63
2024/01/17 04:11:45;;;;;;;19.85;10.18;;;;;;;-146.25;100.00;52729.13;2014795;29;36280;-63
2024/01/17 04:12:47;;;;;;;17.08;8.77;;;;;;;-146.25;100.00;52729.13;2015770;29;20714;-63
2024/01/17 04:13:49;;;;;;;16.08;9.75;;;;;;;-146.25;100.00;52700.72;2015891;29;37054;-63
2024/01/17 04:14:50;;;;;;;13.05;8.95;;;;;;;-146.25;100.00;52753.47;2017167;29;34604;-63
2024/01/17 04:15:55;;;;;;;17.02;9.15;;;;;;;-146.25;100.00;52725.06;2017544;29;20049;-63
2024/01/17 04:16:56;;;;;;;17.83;8.50;;;;;;;-146.25;100.00;52714.94;2016716;29;34915;-63
2024/01/17 04:18:03;;;;;;;14.93;8.68;;;;;;;-146.25;100.00;52725.06;2016916;29;34178;-63
2024/01/17 04:19:05;;;;;;;13.05;8.40;;;;;;;-146.25;100.00;52723.03;2017539;29;32683;-63
2024/01/17 04:20:08;;;;;;;14.25;8.77;;;;;;;-146.25;100.00;52716.97;2007713;29;39104;-63
2024/01/17 04:21:18;;;;;;;14.48;8.60;;;;;;;-146.25;100.00;52733.19;2008827;29;35230;-63
2024/01/17 04:22:20;;;;;;;12.73;8.30;;;;;;;-146.25;100.00;52729.13;2017120;29;33466;-63
2024/01/17 04:23:21;;;;;;;13.23;8.60;;;;;;;-146.25;100.00;52743.31;2016679;29;34687;-63
2024/01/17 04:24:24;;;;;;;12.73;8.02;;;;;;;-146.25;100.00;52771.72;2016879;29;20037;-63
2024/01/17 04:25:26;;;;;;;15.05;9.15;;;;;;;-146.25;100.00;52725.06;2017112;29;36677;-63
2024/01/17 04:26:31;;;;;;;17.05;9.15;;;;;;;-146.25;100.00;52753.47;2016749;29;36878;-64
2024/01/17 04:27:33;;;;;;;16.80;9.05;;;;;;;-146.25;100.00;52745.34;2017140;29;33067;-64
2024/01/17 04:28:37;;;;;;;14.45;8.20;;;;;;;-146.25;100.00;52714.94;2017335;29;20896;-63
2024/01/17 04:29:39;;;;;;;15.75;8.88;;;;;;;-146.25;100.00;52751.44;2017529;29;20156;-63
2024/01/17 04:30:41;;;;;;;14.40;8.48;;;;;;;-146.25;100.00;52733.19;2017331;29;20100;-63
2024/01/17 04:31:43;;;;;;;12.20;8.40;;;;;;;-146.25;100.00;52741.28;2009122;29;20054;-64
2024/01/17 04:32:47;;;;;;;17.52;8.23;;;;;;;-146.25;100.00;52777.78;2009791;29;20127;-64
2024/01/17 04:33:50;;;;;;;16.08;8.65;;;;;;;-146.25;100.00;52698.72;2016938;29;34801;-65
2024/01/17 04:34:52;;;;;;;11.75;7.95;;;;;;;-146.25;100.00;52737.22;2016580;29;34440;-64
2024/01/17 04:35:53;;;;;;;13.80;8.38;;;;;;;-146.25;100.00;52710.88;2016187;29;36347;-63
2024/01/17 04:36:55;;;;;;;14.02;8.05;;;;;;;-146.25;100.00;52729.13;2008493;29;37737;-63
2024/01/17 04:37:57;;;;;;;13.82;7.75;;;;;;;-146.25;100.00;52741.28;2009060;29;20955;-63
2024/01/17 04:39:00;;;;;;;14.88;7.70;;;;;;;-146.25;100.00;52749.41;2016483;29;37736;-62
2024/01/17 04:40:03;;;;;;;12.60;7.88;;;;;;;-146.25;100.00;52737.22;2017120;29;35023;-65
2024/01/17 04:41:05;;;;;;;13.70;8.63;;;;;;;-146.25;100.00;52749.41;2017678;29;20109;-64